createdAt,value
2023-02-27T00:00:53.022Z,-3.9
2023-02-27T00:03:53.037Z,-3.9
2023-02-27T00:06:53.033Z,-3.9
2023-02-27T00:09:53.036Z,-4
2023-02-27T00:12:53.037Z,-4.1
2023-02-27T00:15:53.092Z,-4.2
2023-02-27T00:18:53.062Z,-4.3
2023-02-27T00:21:53.052Z,-4.4
2023-02-27T00:24:53.071Z,-4.4
2023-02-27T00:27:53.074Z,-4.3
2023-02-27T00:30:53.098Z,-4.3
2023-02-27T00:33:53.103Z,-4.3
2023-02-27T00:36:53.072Z,-4.3
2023-02-27T00:39:53.076Z,-4.4
2023-02-27T00:42:53.078Z,-4.5
2023-02-27T00:45:53.094Z,-4.5
2023-02-27T00:48:53.085Z,-4.6
2023-02-27T00:51:53.109Z,-4.6
2023-02-27T00:54:53.087Z,-4.7
2023-02-27T00:57:53.111Z,-4.7
2023-02-27T01:00:53.110Z,-4.8
2023-02-27T01:03:53.100Z,-4.9
2023-02-27T01:06:53.100Z,-4.9
2023-02-27T01:09:53.131Z,-4.9
2023-02-27T01:12:53.116Z,-4.9
2023-02-27T01:15:53.123Z,-4.9
2023-02-27T01:18:53.137Z,-4.9
2023-02-27T01:21:53.142Z,-4.9
2023-02-27T01:24:53.151Z,-5
2023-02-27T01:27:53.178Z,-4.9
2023-02-27T01:30:53.198Z,-4.9
2023-02-27T01:33:53.157Z,-4.8
2023-02-27T01:36:53.160Z,-4.8
2023-02-27T01:39:53.168Z,-4.7
2023-02-27T01:42:53.171Z,-4.7
2023-02-27T01:45:53.272Z,-4.7
2023-02-27T01:48:53.171Z,-4.7
2023-02-27T01:51:53.181Z,-4.7
2023-02-27T01:54:53.187Z,-4.7
2023-02-27T01:57:53.190Z,-4.7
2023-02-27T02:00:53.244Z,-4.7
2023-02-27T02:03:53.225Z,-4.7
2023-02-27T02:06:53.208Z,-4.8
2023-02-27T02:09:53.215Z,-4.8
2023-02-27T02:12:53.222Z,-4.9
2023-02-27T02:15:53.221Z,-5
2023-02-27T02:18:53.230Z,-5.1
2023-02-27T02:21:53.327Z,-5.1
2023-02-27T02:24:53.242Z,-5.1
2023-02-27T02:27:53.255Z,-5.1
2023-02-27T02:30:53.312Z,-5.2
2023-02-27T02:33:53.247Z,-5.3
2023-02-27T02:36:53.256Z,-5.3
2023-02-27T02:39:53.276Z,-5.4
2023-02-27T02:42:53.448Z,-5.4
2023-02-27T02:45:53.289Z,-5.3
2023-02-27T02:48:53.280Z,-5.3
2023-02-27T02:51:53.341Z,-5.3
2023-02-27T02:54:53.278Z,-5.3
2023-02-27T02:57:53.319Z,-5.2
2023-02-27T03:00:53.294Z,-5.2
2023-02-27T03:03:53.302Z,-5.3
2023-02-27T03:06:53.309Z,-5.3
2023-02-27T03:09:53.306Z,-5.3
2023-02-27T03:12:53.313Z,-5.4
2023-02-27T03:15:53.371Z,-5.4
2023-02-27T03:18:53.313Z,-5.5
2023-02-27T03:21:53.321Z,-5.5
2023-02-27T03:24:53.332Z,-5.5
2023-02-27T03:27:53.347Z,-5.5
2023-02-27T03:30:53.520Z,-5.5
2023-02-27T03:33:53.355Z,-5.5
2023-02-27T03:36:53.344Z,-5.5
2023-02-27T03:39:53.352Z,-5.4
2023-02-27T03:42:53.347Z,-5.3
2023-02-27T03:45:53.352Z,-5.1
2023-02-27T03:48:53.351Z,-5
2023-02-27T03:51:53.392Z,-4.9
2023-02-27T03:54:53.368Z,-4.9
2023-02-27T03:57:53.363Z,-4.9
2023-02-27T04:00:53.374Z,-4.9
2023-02-27T04:03:53.367Z,-5
2023-02-27T04:06:53.373Z,-5.1
2023-02-27T04:09:53.403Z,-5.2
2023-02-27T04:12:53.372Z,-5.4
2023-02-27T04:15:53.407Z,-5.5
2023-02-27T04:18:55.184Z,-5.5
2023-02-27T04:21:53.379Z,-5.5
2023-02-27T04:24:53.383Z,-5.5
2023-02-27T04:27:53.446Z,-5.4
2023-02-27T04:30:53.477Z,-5.4
2023-02-27T04:33:53.404Z,-5.3
2023-02-27T04:36:53.411Z,-5.3
2023-02-27T04:39:53.427Z,-5.4
2023-02-27T04:42:53.419Z,-5.5
2023-02-27T04:45:53.488Z,-5.5
2023-02-27T04:48:53.427Z,-5.6
2023-02-27T04:51:53.437Z,-5.6
2023-02-27T04:54:53.438Z,-5.7
2023-02-27T04:57:53.445Z,-5.8
2023-02-27T05:00:53.459Z,-5.8
2023-02-27T05:03:53.477Z,-5.9
2023-02-27T05:06:53.455Z,-5.8
2023-02-27T05:09:53.472Z,-5.9
2023-02-27T05:12:53.471Z,-6
2023-02-27T05:15:53.499Z,-6
2023-02-27T05:18:53.472Z,-6
2023-02-27T05:21:53.498Z,-5.9
2023-02-27T05:24:53.493Z,-5.9
2023-02-27T05:27:53.495Z,-5.9
2023-02-27T05:30:53.495Z,-5.9
2023-02-27T05:33:53.495Z,-5.9
2023-02-27T05:36:53.507Z,-5.8
2023-02-27T05:39:53.536Z,-5.8
2023-02-27T05:42:53.506Z,-5.8
2023-02-27T05:45:53.548Z,-5.7
2023-02-27T05:48:53.509Z,-5.7
2023-02-27T05:51:53.521Z,-5.7
2023-02-27T05:54:53.524Z,-5.7
2023-02-27T05:57:53.561Z,-5.7
2023-02-27T06:00:53.540Z,-5.7
2023-02-27T06:03:53.534Z,-5.6
2023-02-27T06:06:53.534Z,-5.5
2023-02-27T06:09:53.548Z,-5.4
2023-02-27T06:12:53.546Z,-5.3
2023-02-27T06:15:53.579Z,-5.2
2023-02-27T06:18:53.551Z,-5.2
2023-02-27T06:21:53.556Z,-5.1
2023-02-27T06:24:53.573Z,-5
2023-02-27T06:27:53.572Z,-4.9
2023-02-27T06:30:53.620Z,-4.8
2023-02-27T06:33:53.613Z,-4.7
2023-02-27T06:36:53.569Z,-4.5
2023-02-27T06:39:53.590Z,-4.4
2023-02-27T06:42:53.589Z,-4.3
2023-02-27T06:45:53.597Z,-4.2
2023-02-27T06:48:53.591Z,-4.1
2023-02-27T06:51:53.681Z,-3.9
2023-02-27T06:54:53.602Z,-3.7
2023-02-27T06:57:53.615Z,-3.6
2023-02-27T07:00:53.614Z,-3.5
2023-02-27T07:03:53.614Z,-3.3
2023-02-27T07:07:33.779Z,-3.2
2023-02-27T07:09:53.651Z,-3.1
2023-02-27T07:12:53.638Z,-2.9
2023-02-27T07:15:53.637Z,-2.7
2023-02-27T07:18:53.630Z,-2.4
2023-02-27T07:21:53.674Z,-2.2
2023-02-27T07:24:53.665Z,-1.9
2023-02-27T07:27:53.703Z,-1.7
2023-02-27T07:30:53.712Z,-1.6
2023-02-27T07:33:53.683Z,-1.5
2023-02-27T07:36:53.694Z,-1.4
2023-02-27T07:39:53.690Z,-1.4
2023-02-27T07:42:53.687Z,-1.1
2023-02-27T07:45:53.718Z,-0.9
2023-02-27T07:48:53.692Z,-0.6
2023-02-27T07:51:53.708Z,-0.5
2023-02-27T07:54:53.700Z,-0.5
2023-02-27T07:57:53.711Z,-0.4
2023-02-27T08:00:53.697Z,-0.4
2023-02-27T08:03:53.728Z,-0.3
2023-02-27T08:06:53.705Z,-0.2
2023-02-27T08:09:53.710Z,-0.1
2023-02-27T08:12:53.722Z,0
2023-02-27T08:15:53.773Z,0.1
2023-02-27T08:18:53.751Z,0.2
2023-02-27T08:21:53.744Z,0.3
2023-02-27T08:24:53.728Z,0.5
2023-02-27T08:27:53.737Z,0.7
2023-02-27T08:30:53.745Z,0.8
2023-02-27T08:34:00.967Z,0.9
2023-02-27T08:36:53.733Z,1
2023-02-27T08:39:53.770Z,1.6
2023-02-27T08:42:53.737Z,2.3
2023-02-27T08:45:53.871Z,2.9
2023-02-27T08:48:53.758Z,3.6
2023-02-27T08:51:53.775Z,4.2
2023-02-27T08:54:53.765Z,4.7
2023-02-27T08:57:53.793Z,5.3
2023-02-27T09:00:53.843Z,5.5
2023-02-27T09:03:53.771Z,5.8
2023-02-27T09:06:53.797Z,6.1
2023-02-27T09:09:53.788Z,6.4
2023-02-27T09:12:53.797Z,6.5
2023-02-27T09:15:53.831Z,6.6
2023-02-27T09:18:53.801Z,6.8
2023-02-27T09:21:53.804Z,7
2023-02-27T09:24:53.815Z,7.1
2023-02-27T09:27:53.826Z,7.4
2023-02-27T09:30:53.823Z,7.4
2023-02-27T09:33:53.850Z,7.4
2023-02-27T09:36:53.833Z,7.5
2023-02-27T09:39:53.849Z,7.7
2023-02-27T09:42:53.903Z,7.8
2023-02-27T09:45:53.866Z,7.8
2023-02-27T09:48:53.852Z,7.5
2023-02-27T09:51:53.883Z,7.4
2023-02-27T09:54:53.879Z,7.6
2023-02-27T09:57:53.877Z,7.3
2023-02-27T10:00:53.902Z,7.4
2023-02-27T10:03:53.901Z,7.4
2023-02-27T10:06:53.896Z,7.2
2023-02-27T10:09:53.929Z,7.1
2023-02-27T10:12:53.933Z,6.9
2023-02-27T10:15:53.909Z,6.9
2023-02-27T10:18:53.914Z,7.2
2023-02-27T10:21:53.911Z,7.6
2023-02-27T10:24:53.919Z,8
2023-02-27T10:27:53.934Z,7.9
2023-02-27T10:30:53.939Z,7.8
2023-02-27T10:33:53.914Z,7.9
2023-02-27T10:36:53.918Z,8.1
2023-02-27T10:39:53.915Z,8.4
2023-02-27T10:42:53.919Z,8.6
2023-02-27T10:45:53.953Z,8.6
2023-02-27T10:48:53.916Z,8
2023-02-27T10:51:53.916Z,7.8
2023-02-27T10:54:53.918Z,7.9
2023-02-27T10:57:53.912Z,8.1
2023-02-27T11:00:53.929Z,8.3
2023-02-27T11:03:53.941Z,8.3
2023-02-27T11:06:53.915Z,7.8
2023-02-27T11:09:53.911Z,7.4
2023-02-27T11:12:53.911Z,7.6
2023-02-27T11:15:53.925Z,8
2023-02-27T11:18:53.922Z,8.2
2023-02-27T11:21:54.011Z,8.5
2023-02-27T11:24:53.924Z,8.4
2023-02-27T11:27:53.925Z,7.9
2023-02-27T11:30:53.959Z,7.4
2023-02-27T11:33:53.927Z,6.7
2023-02-27T11:36:53.927Z,6.3
2023-02-27T11:39:53.962Z,6.2
2023-02-27T11:42:53.936Z,6.4
2023-02-27T11:46:03.947Z,6.7
2023-02-27T11:48:53.933Z,7.2
2023-02-27T11:51:53.935Z,7.6
2023-02-27T11:54:53.954Z,7.8
2023-02-27T11:57:53.966Z,7.9
2023-02-27T12:00:53.942Z,8
2023-02-27T12:03:53.997Z,7.9
2023-02-27T12:06:53.953Z,7.8
2023-02-27T12:09:53.946Z,7.6
2023-02-27T12:12:53.953Z,7.5
2023-02-27T12:15:54.100Z,7.7
2023-02-27T12:18:53.943Z,7.8
2023-02-27T12:21:53.957Z,7.8
2023-02-27T12:24:53.955Z,7.8
2023-02-27T12:27:53.949Z,7.8
2023-02-27T12:30:53.952Z,7.3
2023-02-27T12:33:53.976Z,6.7
2023-02-27T12:36:53.953Z,6.3
2023-02-27T12:39:53.957Z,6.3
2023-02-27T12:42:53.961Z,6.3
2023-02-27T12:45:54.063Z,6.2
2023-02-27T12:48:53.958Z,6.1
2023-02-27T12:51:53.986Z,6
2023-02-27T12:54:53.977Z,6
2023-02-27T12:57:53.980Z,5.8
2023-02-27T13:00:54.090Z,5.8
2023-02-27T13:03:54.008Z,5.7
2023-02-27T13:06:53.987Z,5.7
2023-02-27T13:09:54.029Z,5.7
2023-02-27T13:12:54.002Z,5.7
2023-02-27T13:15:54.012Z,5.7
2023-02-27T13:18:54.015Z,5.6
2023-02-27T13:21:54.006Z,5.8
2023-02-27T13:24:54.103Z,5.9
2023-02-27T13:27:54.035Z,6
2023-02-27T13:30:54.018Z,6.1
2023-02-27T13:33:54.014Z,6.1
2023-02-27T13:36:54.022Z,6
2023-02-27T13:39:54.024Z,6
2023-02-27T13:42:54.027Z,5.8
2023-02-27T13:45:54.108Z,5.7
2023-02-27T13:48:54.036Z,5.6
2023-02-27T13:51:54.050Z,5.6
2023-02-27T13:54:57.239Z,5.7
2023-02-27T13:57:54.056Z,5.9
2023-02-27T14:00:54.072Z,5.8
2023-02-27T14:03:54.119Z,5.7
2023-02-27T14:06:54.067Z,5.6
2023-02-27T14:09:54.106Z,5.5
2023-02-27T14:12:54.070Z,5.6
2023-02-27T14:15:54.164Z,5.6
2023-02-27T14:18:54.078Z,5.7
2023-02-27T14:21:54.102Z,5.7
2023-02-27T14:25:02.360Z,5.8
2023-02-27T14:27:56.588Z,5.7
2023-02-27T14:30:54.164Z,5.6
2023-02-27T14:33:54.084Z,5.5
2023-02-27T14:36:54.093Z,5.4
2023-02-27T14:39:54.108Z,5.4
2023-02-27T14:42:54.082Z,5.3
2023-02-27T14:45:54.102Z,5.1
2023-02-27T14:48:54.083Z,5.1
2023-02-27T14:51:54.094Z,5
2023-02-27T14:54:54.091Z,5.1
2023-02-27T14:57:54.115Z,5.3
2023-02-27T15:00:54.090Z,5.4
2023-02-27T15:03:54.219Z,5.5
2023-02-27T15:06:54.226Z,5.5
2023-02-27T15:09:54.091Z,5.4
2023-02-27T15:12:54.093Z,5.4
2023-02-27T15:15:54.195Z,5.2
2023-02-27T15:18:54.100Z,5
2023-02-27T15:21:54.141Z,4.9
2023-02-27T15:24:55.577Z,4.8
2023-02-27T15:27:54.100Z,4.7
2023-02-27T15:30:54.198Z,4.7
2023-02-27T15:33:54.129Z,4.8
2023-02-27T15:36:54.111Z,4.9
2023-02-27T15:39:54.103Z,4.9
2023-02-27T15:42:54.107Z,4.8
2023-02-27T15:45:54.121Z,4.8
2023-02-27T15:48:54.114Z,4.7
2023-02-27T15:51:54.139Z,4.6
2023-02-27T15:54:54.122Z,4.5
2023-02-27T15:58:02.641Z,4.5
2023-02-27T16:00:54.123Z,4.4
2023-02-27T16:03:54.116Z,4.3
2023-02-27T16:06:54.113Z,4.2
2023-02-27T16:09:54.142Z,4.1
2023-02-27T16:12:54.117Z,4
2023-02-27T16:15:54.153Z,4
2023-02-27T16:18:54.119Z,3.9
2023-02-27T16:21:54.126Z,3.9
2023-02-27T16:24:54.124Z,3.8
2023-02-27T16:27:54.149Z,3.7
2023-02-27T16:30:54.130Z,3.6
2023-02-27T16:33:54.130Z,3.4
2023-02-27T16:36:54.133Z,3.3
2023-02-27T16:39:54.141Z,3.2
2023-02-27T16:42:54.138Z,3.1
2023-02-27T16:45:54.214Z,3.1
2023-02-27T16:48:54.138Z,3
2023-02-27T16:51:54.140Z,3
2023-02-27T16:54:54.148Z,3
2023-02-27T16:57:54.157Z,2.9
2023-02-27T17:00:54.169Z,2.8
2023-02-27T17:03:54.186Z,2.7
2023-02-27T17:06:54.163Z,2.6
2023-02-27T17:09:54.158Z,2.6
2023-02-27T17:12:54.237Z,2.6
2023-02-27T17:15:54.164Z,2.6
2023-02-27T17:18:54.181Z,2.6
2023-02-27T17:21:54.220Z,2.6
2023-02-27T17:24:54.173Z,2.6
2023-02-27T17:27:54.177Z,2.5
2023-02-27T17:30:54.237Z,2.5
2023-02-27T17:33:54.187Z,2.5
2023-02-27T17:36:54.185Z,2.5
2023-02-27T17:39:54.209Z,2.5
2023-02-27T17:42:54.191Z,2.5
2023-02-27T17:45:54.233Z,2.4
2023-02-27T17:48:54.192Z,2.4
2023-02-27T17:51:54.200Z,2.4
2023-02-27T17:54:54.202Z,2.3
2023-02-27T17:57:54.227Z,2.3
2023-02-27T18:00:54.221Z,2.4
2023-02-27T18:03:54.229Z,2.3
2023-02-27T18:06:54.210Z,2.3
2023-02-27T18:09:54.215Z,2.3
2023-02-27T18:12:54.220Z,2.3
2023-02-27T18:15:54.264Z,2.3
2023-02-27T18:18:54.256Z,2.3
2023-02-27T18:21:54.237Z,2.3
2023-02-27T18:24:54.232Z,2.3
2023-02-27T18:27:54.229Z,2.2
2023-02-27T18:30:54.276Z,2.1
2023-02-27T18:33:54.264Z,2
2023-02-27T18:36:55.176Z,2
2023-02-27T18:39:54.245Z,2
2023-02-27T18:42:54.240Z,2
2023-02-27T18:45:54.244Z,1.9
2023-02-27T18:48:54.243Z,1.8
2023-02-27T18:51:54.282Z,1.6
2023-02-27T18:54:54.275Z,1.5
2023-02-27T18:57:54.255Z,1.4
2023-02-27T19:00:54.335Z,1.3
2023-02-27T19:03:54.282Z,1.2
2023-02-27T19:06:54.269Z,1.2
2023-02-27T19:09:54.292Z,1.2
2023-02-27T19:12:54.268Z,1.2
2023-02-27T19:15:54.309Z,1.2
2023-02-27T19:18:54.282Z,1.2
2023-02-27T19:21:54.283Z,1.2
2023-02-27T19:24:54.290Z,1.2
2023-02-27T19:27:54.319Z,1.1
2023-02-27T19:30:54.303Z,1.1
2023-02-27T19:33:54.303Z,1
2023-02-27T19:36:54.336Z,1
2023-02-27T19:39:54.336Z,1
2023-02-27T19:42:54.319Z,1
2023-02-27T19:45:54.351Z,1
2023-02-27T19:48:54.323Z,0.9
2023-02-27T19:51:54.326Z,0.9
2023-02-27T19:54:54.328Z,1
2023-02-27T19:57:54.336Z,1
2023-02-27T20:00:54.363Z,1.1
2023-02-27T20:03:54.454Z,1.2
2023-02-27T20:06:54.354Z,1.2
2023-02-27T20:09:54.346Z,1.2
2023-02-27T20:12:54.348Z,1.2
2023-02-27T20:15:54.356Z,1.2
2023-02-27T20:18:54.358Z,1.1
2023-02-27T20:21:54.391Z,1
2023-02-27T20:24:54.367Z,0.8
2023-02-27T20:27:54.394Z,0.7
2023-02-27T20:30:54.376Z,0.5
2023-02-27T20:33:54.381Z,0.3
2023-02-27T20:36:54.383Z,0.1
2023-02-27T20:39:54.417Z,-0.1
2023-02-27T20:42:54.393Z,-0.4
2023-02-27T20:45:54.416Z,-0.5
2023-02-27T20:48:54.405Z,-0.6
2023-02-27T20:51:54.403Z,-0.8
2023-02-27T20:54:54.417Z,-0.9
2023-02-27T20:57:54.436Z,-1.1
2023-02-27T21:00:54.427Z,-1.2
2023-02-27T21:03:54.520Z,-1.2
2023-02-27T21:06:54.431Z,-1.2
2023-02-27T21:09:54.440Z,-1.2
2023-02-27T21:12:54.442Z,-1.3
2023-02-27T21:15:54.483Z,-1.4
2023-02-27T21:18:54.456Z,-1.5
2023-02-27T21:21:54.463Z,-1.6
2023-02-27T21:24:54.464Z,-1.8
2023-02-27T21:27:54.472Z,-2
2023-02-27T21:30:54.663Z,-2.2
2023-02-27T21:33:54.511Z,-2.3
2023-02-27T21:36:54.483Z,-2.5
2023-02-27T21:39:54.479Z,-2.5
2023-02-27T21:42:54.489Z,-2.5
2023-02-27T21:45:54.524Z,-2.4
2023-02-27T21:48:54.495Z,-2.2
2023-02-27T21:51:54.528Z,-2.1
2023-02-27T21:54:54.505Z,-2
2023-02-27T21:57:54.509Z,-2.1
2023-02-27T22:00:54.516Z,-2.2
2023-02-27T22:03:54.518Z,-2.3
2023-02-27T22:06:54.521Z,-2.3
2023-02-27T22:09:54.545Z,-2.3
2023-02-27T22:12:54.527Z,-2.3
2023-02-27T22:15:54.578Z,-2.3
2023-02-27T22:18:54.532Z,-2.3
2023-02-27T22:21:54.536Z,-2.4
2023-02-27T22:24:54.531Z,-2.4
2023-02-27T22:27:54.567Z,-2.4
2023-02-27T22:30:54.567Z,-2.4
2023-02-27T22:33:54.543Z,-2.4
2023-02-27T22:36:54.555Z,-2.3
2023-02-27T22:39:54.559Z,-2.3
2023-02-27T22:42:54.555Z,-2.4
2023-02-27T22:45:54.592Z,-2.5
2023-02-27T22:48:54.589Z,-2.5
2023-02-27T22:51:54.588Z,-2.6
2023-02-27T22:54:54.591Z,-2.6
2023-02-27T22:57:54.587Z,-2.8
2023-02-27T23:00:54.592Z,-2.9
2023-02-27T23:03:54.652Z,-3.1
2023-02-27T23:06:54.600Z,-3.2
2023-02-27T23:09:54.603Z,-3.2
2023-02-27T23:12:54.607Z,-3.1
2023-02-27T23:15:54.639Z,-3.2
2023-02-27T23:18:54.614Z,-3.2
2023-02-27T23:21:54.649Z,-3.2
2023-02-27T23:24:54.624Z,-3.2
2023-02-27T23:27:54.627Z,-3.1
2023-02-27T23:30:54.635Z,-3
2023-02-27T23:33:54.627Z,-3
2023-02-27T23:36:54.635Z,-3
2023-02-27T23:39:54.674Z,-2.9
2023-02-27T23:42:54.634Z,-2.8
2023-02-27T23:45:54.770Z,-2.8
2023-02-27T23:48:54.641Z,-2.8
2023-02-27T23:51:54.638Z,-2.7
2023-02-27T23:54:54.647Z,-2.7
2023-02-27T23:57:54.676Z,-2.7
